createdAt,value
2023-01-11T00:00:45.479Z,1.40
2023-01-11T00:03:12.205Z,1.20
2023-01-11T00:05:42.466Z,1.30
2023-01-11T00:08:09.589Z,1.33
2023-01-11T00:10:36.281Z,1.38
2023-01-11T00:13:03.373Z,1.20
2023-01-11T00:15:30.299Z,1.38
2023-01-11T00:17:57.747Z,1.20
2023-01-11T00:20:24.940Z,1.00
2023-01-11T00:22:51.565Z,1.30
2023-01-11T00:25:18.282Z,1.40
2023-01-11T00:27:49.389Z,1.20
2023-01-11T00:30:17.466Z,1.30
2023-01-11T00:32:44.287Z,1.20
2023-01-11T00:35:10.843Z,1.17
2023-01-11T00:37:37.728Z,1.40
2023-01-11T00:40:04.978Z,1.10
2023-01-11T00:42:50.262Z,1.30
2023-01-11T00:45:35.651Z,1.17
2023-01-11T00:48:05.911Z,1.20
2023-01-11T00:50:34.733Z,1.30
2023-01-11T00:53:01.299Z,1.17
2023-01-11T00:55:28.346Z,1.20
2023-01-11T00:57:55.357Z,1.10
2023-01-11T01:00:22.232Z,1.35
2023-01-11T01:02:49.303Z,1.25
2023-01-11T01:05:16.534Z,1.23
2023-01-11T01:07:43.782Z,1.30
2023-01-11T01:10:12.218Z,1.48
2023-01-11T01:12:57.877Z,1.40
2023-01-11T01:15:24.738Z,1.40
2023-01-11T01:17:55.360Z,1.15
2023-01-11T01:20:23.377Z,1.10
2023-01-11T01:22:50.183Z,1.20
2023-01-11T01:25:16.768Z,1.10
2023-01-11T01:27:43.290Z,1.17
2023-01-11T01:30:10.494Z,1.20
2023-01-11T01:32:36.995Z,1.02
2023-01-11T01:35:03.608Z,1.13
2023-01-11T01:37:30.092Z,1.13
2023-01-11T01:39:56.601Z,1.00
2023-01-11T01:42:24.165Z,0.93
2023-01-11T01:45:14.373Z,0.98
2023-01-11T01:47:53.726Z,1.10
2023-01-11T01:50:48.071Z,1.00
2023-01-11T01:53:20.383Z,0.98
2023-01-11T01:55:53.879Z,0.90
2023-01-11T01:58:25.188Z,0.70
2023-01-11T02:00:51.874Z,1.00
2023-01-11T02:03:21.594Z,1.00
2023-01-11T02:05:48.432Z,0.90
2023-01-11T02:08:22.053Z,0.80
2023-01-11T02:10:49.846Z,0.90
2023-01-11T02:13:16.569Z,1.00
2023-01-11T02:15:43.186Z,1.00
2023-01-11T02:18:12.149Z,0.90
2023-01-11T02:20:58.380Z,0.88
2023-01-11T02:23:36.537Z,1.20
2023-01-11T02:26:26.940Z,0.80
2023-01-11T02:29:02.686Z,1.10
2023-01-11T02:31:34.705Z,0.93
2023-01-11T02:37:11.314Z,1.00
2023-01-11T02:40:08.839Z,0.70
2023-01-11T02:43:25.024Z,0.88
2023-01-11T02:45:54.404Z,1.02
2023-01-11T02:48:34.544Z,0.82
2023-01-11T02:51:08.280Z,0.95
2023-01-11T02:53:55.000Z,0.70
2023-01-11T02:56:24.985Z,0.77
2023-01-11T02:58:53.565Z,0.80
2023-01-11T03:01:22.825Z,0.73
2023-01-11T03:03:50.506Z,0.80
2023-01-11T03:06:29.930Z,0.70
2023-01-11T03:09:20.434Z,0.68
2023-01-11T03:12:29.227Z,0.70
2023-01-11T03:15:04.590Z,0.70
2023-01-11T03:17:31.094Z,0.65
2023-01-11T03:20:08.136Z,0.70
2023-01-11T03:22:51.154Z,0.70
2023-01-11T03:25:32.310Z,0.70
2023-01-11T03:28:22.545Z,0.70
2023-01-11T03:30:54.870Z,0.80
2023-01-11T03:33:29.312Z,0.70
2023-01-11T03:36:11.567Z,0.80
2023-01-11T03:41:13.855Z,0.80
2023-01-11T03:43:41.301Z,0.60
2023-01-11T03:46:14.949Z,0.65
2023-01-11T03:49:05.049Z,0.65
2023-01-11T03:51:35.328Z,0.60
2023-01-11T03:54:04.368Z,0.50
2023-01-11T03:56:36.875Z,0.70
2023-01-11T03:59:03.698Z,0.85
2023-01-11T04:01:30.482Z,0.95
2023-01-11T04:03:57.091Z,0.90
2023-01-11T04:06:24.131Z,0.88
2023-01-11T04:08:50.839Z,0.90
2023-01-11T04:11:17.429Z,0.95
2023-01-11T04:13:43.956Z,0.75
2023-01-11T04:16:10.532Z,0.88
2023-01-11T04:18:37.150Z,0.70
2023-01-11T04:21:03.840Z,0.70
2023-01-11T04:23:30.943Z,0.70
2023-01-11T04:25:57.434Z,0.77
2023-01-11T04:28:23.962Z,0.65
2023-01-11T04:30:50.610Z,0.90
2023-01-11T04:33:17.162Z,0.70
2023-01-11T04:35:44.740Z,0.70
2023-01-11T04:38:11.546Z,0.65
2023-01-11T04:40:38.065Z,0.77
2023-01-11T04:43:04.527Z,0.70
2023-01-11T04:45:31.213Z,0.60
2023-01-11T04:47:58.111Z,0.70
2023-01-11T04:50:25.927Z,0.80
2023-01-11T04:52:53.084Z,0.68
2023-01-11T04:55:19.723Z,0.90
2023-01-11T04:57:46.754Z,0.80
2023-01-11T05:00:13.869Z,0.95
2023-01-11T05:02:40.472Z,0.90
2023-01-11T05:05:07.920Z,0.80
2023-01-11T05:07:34.585Z,0.70
2023-01-11T05:10:01.117Z,0.50
2023-01-11T05:12:27.709Z,0.80
2023-01-11T05:14:54.257Z,1.00
2023-01-11T05:17:20.779Z,0.80
2023-01-11T05:19:47.279Z,0.82
2023-01-11T05:22:13.832Z,0.80
2023-01-11T05:24:40.420Z,0.80
2023-01-11T05:27:07.122Z,0.63
2023-01-11T05:29:33.680Z,0.70
2023-01-11T05:32:00.212Z,0.80
2023-01-11T05:34:26.903Z,0.82
2023-01-11T05:36:53.477Z,0.80
2023-01-11T05:39:20.017Z,0.70
2023-01-11T05:41:46.581Z,0.70
2023-01-11T05:44:31.994Z,0.80
2023-01-11T05:46:58.802Z,0.80
2023-01-11T05:49:25.577Z,0.90
2023-01-11T05:51:52.178Z,0.70
2023-01-11T05:54:18.786Z,0.80
2023-01-11T05:56:45.274Z,0.80
2023-01-11T05:59:12.034Z,0.90
2023-01-11T06:01:39.236Z,0.85
2023-01-11T06:04:05.894Z,0.75
2023-01-11T06:06:32.994Z,1.13
2023-01-11T06:08:59.536Z,0.80
2023-01-11T06:11:26.041Z,0.80
2023-01-11T06:13:52.643Z,0.90
2023-01-11T06:16:20.321Z,0.95
2023-01-11T06:18:49.278Z,1.00
2023-01-11T06:21:16.695Z,0.98
2023-01-11T06:23:45.926Z,0.90
2023-01-11T06:26:15.221Z,1.10
2023-01-11T06:28:42.132Z,1.13
2023-01-11T06:31:09.247Z,0.95
2023-01-11T06:33:36.699Z,0.82
2023-01-11T06:36:06.303Z,1.25
2023-01-11T06:38:33.228Z,0.95
2023-01-11T06:41:02.387Z,1.10
2023-01-11T06:43:30.153Z,1.02
2023-01-11T06:45:57.253Z,1.00
2023-01-11T06:48:24.379Z,0.90
2023-01-11T06:50:52.690Z,1.10
2023-01-11T06:53:19.811Z,1.10
2023-01-11T06:55:50.705Z,1.10
2023-01-11T06:58:17.346Z,1.00
2023-01-11T07:00:44.042Z,0.80
2023-01-11T07:03:11.421Z,1.13
2023-01-11T07:05:38.048Z,0.85
2023-01-11T07:08:04.713Z,1.20
2023-01-11T07:10:31.391Z,1.02
2023-01-11T07:12:58.100Z,1.20
2023-01-11T07:15:24.676Z,1.10
2023-01-11T07:18:01.255Z,1.15
2023-01-11T07:20:28.001Z,1.15
2023-01-11T07:22:59.398Z,1.00
2023-01-11T07:25:27.812Z,1.10
2023-01-11T07:28:02.423Z,1.02
2023-01-11T07:30:30.836Z,1.30
2023-01-11T07:32:58.448Z,1.10
2023-01-11T07:35:26.456Z,1.35
2023-01-11T07:37:54.550Z,1.00
2023-01-11T07:40:21.183Z,1.10
2023-01-11T07:43:08.228Z,0.90
2023-01-11T07:45:45.273Z,1.30
2023-01-11T07:48:13.217Z,1.10
2023-01-11T07:50:44.280Z,1.35
2023-01-11T07:53:12.652Z,1.20
2023-01-11T07:55:40.153Z,1.58
2023-01-11T07:58:08.618Z,2.65
2023-01-11T08:00:35.221Z,1.95
2023-01-11T08:03:03.687Z,2.33
2023-01-11T08:05:30.321Z,1.88
2023-01-11T08:07:56.821Z,1.80
2023-01-11T08:10:23.441Z,1.88
2023-01-11T08:13:08.826Z,2.58
2023-01-11T08:15:42.277Z,2.50
2023-01-11T08:18:09.292Z,2.70
2023-01-11T08:20:36.380Z,3.03
2023-01-11T08:23:05.209Z,2.70
2023-01-11T08:25:32.501Z,3.78
2023-01-11T08:28:03.027Z,3.47
2023-01-11T08:30:29.867Z,3.20
2023-01-11T08:32:57.548Z,4.32
2023-01-11T08:35:25.405Z,4.47
2023-01-11T08:37:52.057Z,4.40
2023-01-11T08:40:18.703Z,3.80
2023-01-11T08:42:45.198Z,3.75
2023-01-11T08:45:11.784Z,3.45
2023-01-11T08:47:38.355Z,3.65
2023-01-11T08:50:05.762Z,3.65
2023-01-11T08:52:32.421Z,3.05
2023-01-11T08:54:58.965Z,3.33
2023-01-11T08:57:25.448Z,3.20
2023-01-11T08:59:52.035Z,2.63
2023-01-11T09:02:18.617Z,2.65
2023-01-11T09:04:45.102Z,2.83
2023-01-11T09:07:11.702Z,3.05
2023-01-11T09:09:38.362Z,2.65
2023-01-11T09:12:05.935Z,2.80
2023-01-11T09:14:32.656Z,3.28
2023-01-11T09:16:59.351Z,3.40
2023-01-11T09:19:26.078Z,3.17
2023-01-11T09:21:53.418Z,3.88
2023-01-11T09:24:20.037Z,3.53
2023-01-11T09:26:47.740Z,3.20
2023-01-11T09:29:14.427Z,3.78
2023-01-11T09:31:41.308Z,3.15
2023-01-11T09:34:10.934Z,3.30
2023-01-11T09:36:39.906Z,3.22
2023-01-11T09:39:12.810Z,3.25
2023-01-11T09:42:15.141Z,3.70
2023-01-11T09:44:54.462Z,2.97
2023-01-11T09:47:37.079Z,2.90
2023-01-11T09:50:12.312Z,3.38
2023-01-11T09:52:44.692Z,2.88
2023-01-11T09:55:23.042Z,2.88
2023-01-11T09:58:21.800Z,2.70
2023-01-11T10:01:01.458Z,2.60
2023-01-11T10:03:40.097Z,2.60
2023-01-11T10:06:15.060Z,2.78
2023-01-11T10:18:43.175Z,2.25
2023-01-11T10:19:18.648Z,2.25
2023-01-11T10:22:03.046Z,2.28
2023-01-11T10:24:48.421Z,2.33
2023-01-11T10:27:21.964Z,2.30
2023-01-11T10:29:52.426Z,2.33
2023-01-11T10:32:45.954Z,2.40
2023-01-11T10:35:45.581Z,2.15
2023-01-11T10:38:40.925Z,2.20
2023-01-11T10:41:20.088Z,2.42
2023-01-11T10:43:52.088Z,2.17
2023-01-11T10:48:47.039Z,1.90
2023-01-11T10:51:35.585Z,2.38
2023-01-11T10:54:15.423Z,1.80
2023-01-11T10:57:23.091Z,2.00
2023-01-11T11:00:23.838Z,1.98
2023-01-11T11:03:10.106Z,2.17
2023-01-11T11:06:08.271Z,1.83
2023-01-11T11:08:50.972Z,1.75
2023-01-11T11:11:29.742Z,1.63
2023-01-11T11:14:14.629Z,1.48
2023-01-11T11:16:51.800Z,1.60
2023-01-11T11:19:22.451Z,1.75
2023-01-11T11:21:49.731Z,1.40
2023-01-11T11:24:32.483Z,1.50
2023-01-11T11:27:26.884Z,1.50
2023-01-11T11:29:55.841Z,1.50
2023-01-11T11:32:36.720Z,1.33
2023-01-11T11:35:04.444Z,1.30
2023-01-11T11:37:44.370Z,1.50
2023-01-11T11:40:33.039Z,1.45
2023-01-11T11:43:16.140Z,1.13
2023-01-11T11:46:01.762Z,1.20
2023-01-11T11:48:31.331Z,1.10
2023-01-11T11:50:59.938Z,1.27
2023-01-11T11:53:27.702Z,1.00
2023-01-11T11:55:54.821Z,1.08
2023-01-11T11:58:23.764Z,0.90
2023-01-11T12:00:52.269Z,0.90
2023-01-11T12:03:42.675Z,1.30
2023-01-11T12:06:09.262Z,0.82
2023-01-11T12:08:36.340Z,0.88
2023-01-11T12:11:06.018Z,0.60
2023-01-11T12:13:33.906Z,0.85
2023-01-11T12:16:03.202Z,0.98
2023-01-11T12:18:43.406Z,1.05
2023-01-11T12:21:24.082Z,0.73
2023-01-11T12:24:22.792Z,0.90
2023-01-11T12:27:19.785Z,0.90
2023-01-11T12:30:28.116Z,1.08
2023-01-11T12:33:05.943Z,1.25
2023-01-11T12:36:06.007Z,0.90
2023-01-11T12:38:50.927Z,1.02
2023-01-11T12:41:59.175Z,0.68
2023-01-11T12:44:43.871Z,0.80
2023-01-11T12:47:19.029Z,0.80
2023-01-11T12:50:03.383Z,0.93
2023-01-11T12:52:29.878Z,0.90
2023-01-11T12:55:06.184Z,1.10
2023-01-11T12:58:00.113Z,1.10
2023-01-11T13:01:12.683Z,0.90
2023-01-11T13:03:57.941Z,1.20
2023-01-11T13:06:41.744Z,1.10
2023-01-11T13:09:26.432Z,1.00
2023-01-11T13:12:03.481Z,0.98
2023-01-11T13:15:00.997Z,0.73
2023-01-11T13:18:24.614Z,1.00
2023-01-11T13:21:03.904Z,1.33
2023-01-11T13:23:33.618Z,1.10
2023-01-11T13:26:25.187Z,1.20
2023-01-11T13:28:57.897Z,0.90
2023-01-11T13:31:25.030Z,0.95
2023-01-11T13:33:57.399Z,1.00
2023-01-11T13:36:31.492Z,0.80
2023-01-11T13:39:36.580Z,0.90
2023-01-11T13:42:08.169Z,0.93
2023-01-11T13:44:42.573Z,0.90
2023-01-11T13:47:37.398Z,0.90
2023-01-11T13:50:10.714Z,0.90
2023-01-11T13:53:03.471Z,1.08
2023-01-11T13:55:39.420Z,1.40
2023-01-11T13:58:17.451Z,1.00
2023-01-11T14:01:07.708Z,0.93
2023-01-11T14:03:39.990Z,1.05
2023-01-11T14:06:42.015Z,0.90
2023-01-11T14:09:44.076Z,0.82
2023-01-11T14:12:19.627Z,1.13
2023-01-11T14:15:04.599Z,1.13
2023-01-11T14:17:40.285Z,1.50
2023-01-11T14:20:28.791Z,1.13
2023-01-11T14:23:07.746Z,1.10
2023-01-11T14:25:49.254Z,1.23
2023-01-11T14:28:37.396Z,1.30
2023-01-11T14:31:20.647Z,1.33
2023-01-11T14:34:09.464Z,1.30
2023-01-11T14:36:45.008Z,1.38
2023-01-11T14:39:23.784Z,1.60
2023-01-11T14:42:31.112Z,1.33
2023-01-11T14:45:17.491Z,1.30
2023-01-11T14:48:03.211Z,1.70
2023-01-11T14:50:41.037Z,1.25
2023-01-11T14:53:10.229Z,1.33
2023-01-11T14:55:45.163Z,1.30
2023-01-11T14:58:30.407Z,1.33
2023-01-11T15:00:56.936Z,1.10
2023-01-11T15:03:26.398Z,1.48
2023-01-11T15:06:01.602Z,1.52
2023-01-11T15:08:41.302Z,1.52
2023-01-11T15:11:31.146Z,1.67
2023-01-11T15:14:03.021Z,0.95
2023-01-11T15:16:50.053Z,1.55
2023-01-11T15:19:34.795Z,1.00
2023-01-11T15:22:03.423Z,1.15
2023-01-11T15:24:31.888Z,1.23
2023-01-11T15:27:04.587Z,1.52
2023-01-11T15:29:35.787Z,1.00
2023-01-11T15:32:02.468Z,1.00
2023-01-11T15:34:44.160Z,1.10
2023-01-11T15:37:19.661Z,0.95
2023-01-11T15:40:22.354Z,1.23
2023-01-11T15:43:16.727Z,1.02
2023-01-11T15:46:20.283Z,0.95
2023-01-11T15:49:17.654Z,0.98
2023-01-11T15:52:08.852Z,0.85
2023-01-11T15:54:47.644Z,1.30
2023-01-11T15:57:29.207Z,1.13
2023-01-11T16:00:17.553Z,1.30
2023-01-11T16:03:25.540Z,1.20
2023-01-11T16:06:19.592Z,1.10
2023-01-11T16:09:10.904Z,0.98
2023-01-11T16:11:55.680Z,1.08
2023-01-11T16:14:40.379Z,1.10
2023-01-11T16:17:14.074Z,0.82
2023-01-11T16:19:44.072Z,1.00
2023-01-11T16:22:15.186Z,1.33
2023-01-11T16:24:45.043Z,1.10
2023-01-11T16:27:27.793Z,1.13
2023-01-11T16:29:55.390Z,1.30
2023-01-11T16:32:21.926Z,1.33
2023-01-11T16:34:52.006Z,1.27
2023-01-11T16:37:33.357Z,1.88
2023-01-11T16:40:08.682Z,1.80
2023-01-11T16:42:59.808Z,1.70
2023-01-11T16:45:40.435Z,2.00
2023-01-11T16:48:23.316Z,2.42
2023-01-11T16:51:08.804Z,2.45
2023-01-11T16:53:39.641Z,2.50
2023-01-11T16:56:12.977Z,2.58
2023-01-11T16:58:40.428Z,2.60
2023-01-11T17:01:12.454Z,2.60
2023-01-11T17:03:51.818Z,2.78
2023-01-11T17:06:25.033Z,2.90
2023-01-11T17:08:56.587Z,3.03
2023-01-11T17:11:35.180Z,3.30
2023-01-11T17:14:07.867Z,3.90
2023-01-11T17:16:39.827Z,3.95
2023-01-11T17:21:39.751Z,3.38
2023-01-11T17:24:06.639Z,3.63
2023-01-11T17:26:43.248Z,3.58
2023-01-11T17:29:13.660Z,3.13
2023-01-11T17:31:40.401Z,3.00
2023-01-11T17:34:18.888Z,3.75
2023-01-11T17:36:46.278Z,3.55
2023-01-11T17:39:39.695Z,3.85
2023-01-11T17:42:25.994Z,4.82
2023-01-11T17:45:12.583Z,4.03
2023-01-11T17:47:40.746Z,3.95
2023-01-11T17:50:30.879Z,4.22
2023-01-11T17:53:12.664Z,4.10
2023-01-11T17:55:55.079Z,4.38
2023-01-11T17:58:37.733Z,3.67
2023-01-11T18:01:04.358Z,4.18
2023-01-11T18:03:39.054Z,4.30
2023-01-11T18:06:35.738Z,4.00
2023-01-11T18:09:04.970Z,4.13
2023-01-11T18:11:36.657Z,3.63
2023-01-11T18:14:05.489Z,4.35
2023-01-11T18:16:32.418Z,3.25
2023-01-11T18:18:59.336Z,2.65
2023-01-11T18:21:25.984Z,2.40
2023-01-11T18:24:10.941Z,1.80
2023-01-11T18:26:41.995Z,1.88
2023-01-11T18:29:37.073Z,1.67
2023-01-11T18:32:08.989Z,1.60
2023-01-11T18:37:02.720Z,1.10
2023-01-11T18:39:29.276Z,1.10
2023-01-11T18:42:08.219Z,1.30
2023-01-11T21:34:01.925Z,2.47
2023-01-11T21:36:30.557Z,2.47
2023-01-11T21:38:58.488Z,2.70
2023-01-11T21:41:48.873Z,3.03
2023-01-11T21:44:16.114Z,2.70
2023-01-11T21:46:43.315Z,2.60
2023-01-11T21:49:10.755Z,2.60
2023-01-11T21:51:37.530Z,2.80
2023-01-11T21:54:06.344Z,2.70
2023-01-11T21:56:32.894Z,2.78
2023-01-11T21:58:59.654Z,2.50
2023-01-11T22:01:26.454Z,2.63
2023-01-11T22:03:53.224Z,2.95
2023-01-11T22:06:19.829Z,2.83
2023-01-11T22:08:46.602Z,2.63
2023-01-11T22:11:15.150Z,2.83
2023-01-11T22:13:42.798Z,2.45
2023-01-11T22:16:12.943Z,3.20
2023-01-11T22:18:41.235Z,2.78
2023-01-11T22:21:12.855Z,2.65
2023-01-11T22:23:39.898Z,2.83
2023-01-11T22:26:12.429Z,3.15
2023-01-11T22:28:57.883Z,3.03
2023-01-11T22:31:26.208Z,2.65
2023-01-11T22:33:53.396Z,3.15
2023-01-11T22:36:20.787Z,3.10
2023-01-11T22:38:47.347Z,2.88
2023-01-11T22:41:14.916Z,3.05
2023-01-11T22:43:43.015Z,3.33
2023-01-11T22:46:14.014Z,3.58
2023-01-11T22:48:40.592Z,2.70
2023-01-11T22:51:08.216Z,3.10
2023-01-11T22:53:42.320Z,2.80
2023-01-11T22:56:09.724Z,2.80
2023-01-11T22:58:36.731Z,2.53
2023-01-11T23:01:21.744Z,2.83
2023-01-11T23:03:49.243Z,2.60
2023-01-11T23:06:20.507Z,2.53
2023-01-11T23:08:47.197Z,2.35
2023-01-11T23:11:39.921Z,2.53
2023-01-11T23:14:12.641Z,2.45
2023-01-11T23:16:39.412Z,2.25
2023-01-11T23:19:07.375Z,2.10
2023-01-11T23:21:34.597Z,1.88
2023-01-11T23:24:02.231Z,2.28
2023-01-11T23:26:29.077Z,2.50
2023-01-11T23:28:55.605Z,2.00
2023-01-11T23:31:23.866Z,1.98
2023-01-11T23:33:53.050Z,2.50
2023-01-11T23:36:21.572Z,2.58
2023-01-11T23:38:48.455Z,2.70
2023-01-11T23:41:36.637Z,2.75
2023-01-11T23:44:09.229Z,2.50
2023-01-11T23:46:55.137Z,3.28
2023-01-11T23:49:22.265Z,2.42
2023-01-11T23:51:48.795Z,2.30
2023-01-11T23:54:15.319Z,2.08
2023-01-11T23:56:41.892Z,2.03
2023-01-11T23:59:08.740Z,2.40
